createdAt,value
2022-08-17T00:00:51.823Z,27.85
2022-08-17T00:01:52.727Z,27.85
2022-08-17T00:02:46.841Z,27.82
2022-08-17T00:03:46.844Z,27.88
2022-08-17T00:04:50.423Z,27.78
2022-08-17T00:05:46.846Z,27.97
2022-08-17T00:06:49.180Z,27.90
2022-08-17T00:07:46.850Z,27.84
2022-08-17T00:08:46.846Z,27.84
2022-08-17T00:09:46.847Z,27.92
2022-08-17T00:10:46.847Z,27.78
2022-08-17T00:12:03.943Z,27.94
2022-08-17T00:12:46.854Z,27.97
2022-08-17T00:13:46.851Z,27.93
2022-08-17T00:14:46.851Z,27.93
2022-08-17T00:15:46.855Z,27.81
2022-08-17T00:16:51.025Z,27.93
2022-08-17T00:17:46.853Z,27.78
2022-08-17T00:19:04.158Z,27.87
2022-08-17T00:19:46.854Z,27.92
2022-08-17T00:20:46.857Z,27.79
2022-08-17T00:22:29.917Z,27.85
2022-08-17T00:22:46.856Z,27.84
2022-08-17T00:23:49.225Z,27.85
2022-08-17T00:24:46.858Z,27.84
2022-08-17T00:25:46.860Z,27.81
2022-08-17T00:26:46.858Z,27.81
2022-08-17T00:27:46.860Z,27.84
2022-08-17T00:28:46.969Z,27.84
2022-08-17T00:29:46.863Z,27.84
2022-08-17T00:30:51.254Z,27.94
2022-08-17T00:31:46.873Z,27.79
2022-08-17T00:33:15.526Z,27.84
2022-08-17T00:33:46.865Z,27.84
2022-08-17T00:34:46.866Z,27.92
2022-08-17T00:35:46.867Z,27.94
2022-08-17T00:36:46.867Z,27.82
2022-08-17T00:37:46.871Z,27.77
2022-08-17T00:38:46.869Z,27.75
2022-08-17T00:39:46.944Z,27.82
2022-08-17T00:40:46.870Z,27.81
2022-08-17T00:41:46.873Z,27.82
2022-08-17T00:42:46.872Z,27.84
2022-08-17T00:43:46.873Z,27.88
2022-08-17T00:44:46.872Z,27.90
2022-08-17T00:45:46.875Z,27.90
2022-08-17T00:46:46.878Z,27.79
2022-08-17T00:47:46.877Z,27.85
2022-08-17T00:48:46.875Z,27.92
2022-08-17T00:49:46.880Z,27.90
2022-08-17T00:50:46.876Z,27.85
2022-08-17T00:51:46.884Z,27.85
2022-08-17T00:52:46.902Z,27.82
2022-08-17T00:53:46.888Z,27.88
2022-08-17T00:54:46.881Z,27.81
2022-08-17T00:55:46.883Z,27.92
2022-08-17T00:56:46.882Z,27.92
2022-08-17T00:57:46.887Z,27.84
2022-08-17T00:58:46.883Z,27.72
2022-08-17T00:59:46.890Z,27.92
2022-08-17T01:00:46.915Z,27.82
2022-08-17T01:01:46.888Z,27.85
2022-08-17T01:02:46.889Z,27.92
2022-08-17T01:03:46.888Z,27.88
2022-08-17T01:04:46.886Z,27.88
2022-08-17T01:05:46.891Z,27.92
2022-08-17T01:06:46.889Z,27.82
2022-08-17T01:07:46.891Z,27.94
2022-08-17T01:08:46.894Z,27.79
2022-08-17T01:09:46.892Z,27.70
2022-08-17T01:10:59.259Z,27.99
2022-08-17T01:11:46.894Z,27.74
2022-08-17T01:12:46.899Z,27.92
2022-08-17T01:13:46.896Z,27.77
2022-08-17T01:14:46.895Z,27.75
2022-08-17T01:15:46.898Z,27.70
2022-08-17T01:16:46.897Z,27.88
2022-08-17T01:17:46.903Z,27.88
2022-08-17T01:18:46.898Z,27.72
2022-08-17T01:19:46.901Z,27.87
2022-08-17T01:20:48.619Z,27.94
2022-08-17T01:21:46.901Z,27.94
2022-08-17T01:22:46.899Z,27.93
2022-08-17T01:23:46.907Z,27.78
2022-08-17T01:24:46.902Z,27.81
2022-08-17T01:25:46.904Z,27.93
2022-08-17T01:26:47.023Z,27.75
2022-08-17T01:27:46.905Z,27.82
2022-08-17T01:28:55.030Z,27.85
2022-08-17T01:29:46.909Z,27.81
2022-08-17T01:30:57.755Z,27.78
2022-08-17T01:31:46.980Z,27.77
2022-08-17T01:32:46.910Z,27.87
2022-08-17T01:33:46.909Z,27.88
2022-08-17T01:34:50.299Z,27.90
2022-08-17T01:35:46.914Z,27.88
2022-08-17T01:36:47.035Z,27.90
2022-08-17T01:37:46.911Z,27.82
2022-08-17T01:38:46.919Z,27.85
2022-08-17T01:39:46.947Z,27.82
2022-08-17T01:40:46.915Z,27.90
2022-08-17T01:41:46.917Z,27.72
2022-08-17T01:42:46.915Z,27.93
2022-08-17T01:43:46.915Z,27.85
2022-08-17T01:44:46.920Z,27.88
2022-08-17T01:45:46.918Z,27.87
2022-08-17T01:46:46.919Z,27.85
2022-08-17T01:47:46.931Z,27.82
2022-08-17T01:48:46.922Z,27.82
2022-08-17T01:49:46.921Z,27.88
2022-08-17T01:50:46.923Z,27.82
2022-08-17T01:51:46.922Z,27.84
2022-08-17T01:52:46.989Z,27.97
2022-08-17T01:53:46.924Z,27.84
2022-08-17T01:54:46.924Z,27.85
2022-08-17T01:55:46.925Z,27.96
2022-08-17T01:56:47.157Z,27.87
2022-08-17T01:57:46.927Z,27.84
2022-08-17T01:58:46.931Z,27.84
2022-08-17T01:59:46.933Z,27.82
2022-08-17T02:00:59.883Z,27.84
2022-08-17T02:01:47.044Z,27.85
2022-08-17T02:02:46.930Z,27.90
2022-08-17T02:03:56.256Z,27.93
2022-08-17T02:04:46.955Z,27.84
2022-08-17T02:05:46.932Z,27.85
2022-08-17T02:06:52.946Z,27.90
2022-08-17T02:07:59.879Z,27.92
2022-08-17T02:09:02.977Z,27.88
2022-08-17T02:09:46.935Z,27.93
2022-08-17T02:10:47.009Z,27.85
2022-08-17T02:11:46.937Z,27.84
2022-08-17T02:12:46.938Z,27.82
2022-08-17T02:13:46.938Z,27.81
2022-08-17T02:14:46.946Z,27.81
2022-08-17T02:15:46.940Z,27.74
2022-08-17T02:16:46.942Z,27.90
2022-08-17T02:17:46.942Z,27.84
2022-08-17T02:18:46.942Z,27.85
2022-08-17T02:19:46.942Z,27.84
2022-08-17T02:20:46.945Z,27.84
2022-08-17T02:21:46.946Z,27.74
2022-08-17T02:22:46.945Z,27.74
2022-08-17T02:23:46.946Z,27.90
2022-08-17T02:24:59.843Z,27.79
2022-08-17T02:25:46.948Z,27.81
2022-08-17T02:26:46.949Z,27.84
2022-08-17T02:27:46.949Z,27.85
2022-08-17T02:28:46.950Z,27.78
2022-08-17T02:29:46.951Z,27.78
2022-08-17T02:30:59.618Z,27.77
2022-08-17T02:31:46.951Z,27.70
2022-08-17T02:32:46.953Z,27.85
2022-08-17T02:33:46.952Z,27.77
2022-08-17T02:34:46.955Z,27.74
2022-08-17T02:35:46.954Z,27.82
2022-08-17T02:36:46.955Z,27.79
2022-08-17T02:37:46.956Z,27.82
2022-08-17T02:38:46.957Z,27.70
2022-08-17T02:39:46.987Z,27.79
2022-08-17T02:40:46.959Z,27.85
2022-08-17T02:41:46.960Z,27.85
2022-08-17T02:42:46.964Z,27.84
2022-08-17T02:43:46.959Z,27.81
2022-08-17T02:44:46.967Z,27.82
2022-08-17T02:45:46.962Z,27.77
2022-08-17T02:46:46.963Z,27.82
2022-08-17T02:47:46.962Z,27.87
2022-08-17T02:48:46.968Z,27.79
2022-08-17T02:49:54.440Z,27.75
2022-08-17T02:50:46.966Z,27.78
2022-08-17T02:51:46.965Z,27.87
2022-08-17T02:52:47.484Z,27.81
2022-08-17T02:53:46.968Z,27.84
2022-08-17T02:54:46.968Z,27.79
2022-08-17T02:55:46.968Z,27.84
2022-08-17T02:56:46.971Z,27.84
2022-08-17T02:57:46.971Z,27.74
2022-08-17T02:58:46.973Z,27.82
2022-08-17T02:59:49.143Z,27.78
2022-08-17T03:00:46.977Z,27.75
2022-08-17T03:01:47.025Z,27.82
2022-08-17T03:02:47.097Z,27.85
2022-08-17T03:03:46.975Z,27.69
2022-08-17T03:04:46.977Z,27.77
2022-08-17T03:05:46.975Z,27.84
2022-08-17T03:06:46.976Z,27.82
2022-08-17T03:07:46.977Z,27.72
2022-08-17T03:08:46.979Z,27.84
2022-08-17T03:09:46.978Z,27.84
2022-08-17T03:10:46.979Z,27.75
2022-08-17T03:11:46.979Z,27.75
2022-08-17T03:12:47.036Z,27.79
2022-08-17T03:13:46.982Z,27.82
2022-08-17T03:14:46.983Z,27.81
2022-08-17T03:15:46.985Z,27.85
2022-08-17T03:16:46.983Z,27.75
2022-08-17T03:17:46.985Z,27.82
2022-08-17T03:18:46.985Z,27.85
2022-08-17T03:19:46.985Z,27.78
2022-08-17T03:20:46.987Z,27.75
2022-08-17T03:21:46.989Z,27.75
2022-08-17T03:22:47.997Z,27.77
2022-08-17T03:23:46.989Z,27.82
2022-08-17T03:24:46.990Z,27.79
2022-08-17T03:25:46.990Z,27.78
2022-08-17T03:26:46.990Z,27.70
2022-08-17T03:27:48.199Z,27.77
2022-08-17T03:28:46.993Z,27.79
2022-08-17T03:29:46.992Z,27.77
2022-08-17T03:30:46.997Z,27.72
2022-08-17T03:31:46.993Z,27.81
2022-08-17T03:32:47.140Z,27.84
2022-08-17T03:33:46.996Z,27.78
2022-08-17T03:34:46.999Z,27.81
2022-08-17T03:35:46.999Z,27.79
2022-08-17T03:36:46.999Z,27.75
2022-08-17T03:37:46.997Z,27.74
2022-08-17T03:38:47.002Z,27.75
2022-08-17T03:39:47.030Z,27.81
2022-08-17T03:40:56.487Z,27.82
2022-08-17T03:41:47.002Z,27.77
2022-08-17T03:42:47.002Z,27.82
2022-08-17T03:43:47.005Z,27.78
2022-08-17T03:44:47.005Z,27.79
2022-08-17T03:45:47.006Z,27.81
2022-08-17T03:46:47.005Z,27.72
2022-08-17T03:47:47.008Z,27.78
2022-08-17T03:48:47.006Z,27.77
2022-08-17T03:49:47.007Z,27.75
2022-08-17T03:50:47.008Z,27.74
2022-08-17T03:51:47.009Z,27.77
2022-08-17T03:52:47.010Z,27.77
2022-08-17T03:53:47.010Z,27.77
2022-08-17T03:54:47.011Z,27.78
2022-08-17T03:55:47.011Z,27.81
2022-08-17T03:56:47.013Z,27.77
2022-08-17T03:57:47.013Z,27.81
2022-08-17T03:58:47.012Z,27.79
2022-08-17T03:59:47.651Z,27.75
2022-08-17T04:00:47.015Z,27.84
2022-08-17T04:01:47.101Z,27.78
2022-08-17T04:02:47.067Z,27.82
2022-08-17T04:03:47.015Z,27.77
2022-08-17T04:04:47.017Z,27.78
2022-08-17T04:05:47.223Z,27.78
2022-08-17T04:06:47.019Z,27.74
2022-08-17T04:07:47.020Z,27.70
2022-08-17T04:08:47.019Z,27.72
2022-08-17T04:09:47.023Z,27.67
2022-08-17T04:10:47.023Z,27.75
2022-08-17T04:11:47.020Z,27.81
2022-08-17T04:12:47.094Z,27.75
2022-08-17T04:13:47.028Z,27.75
2022-08-17T04:14:52.699Z,27.81
2022-08-17T04:15:47.029Z,27.78
2022-08-17T04:16:47.033Z,27.77
2022-08-17T04:17:47.026Z,27.74
2022-08-17T04:18:47.028Z,27.75
2022-08-17T04:19:47.030Z,27.79
2022-08-17T04:20:47.028Z,27.77
2022-08-17T04:21:47.029Z,27.78
2022-08-17T04:22:47.081Z,27.79
2022-08-17T04:23:47.036Z,27.77
2022-08-17T04:24:47.032Z,27.78
2022-08-17T04:25:47.031Z,27.78
2022-08-17T04:26:53.102Z,27.79
2022-08-17T04:27:47.032Z,27.75
2022-08-17T04:28:47.036Z,27.72
2022-08-17T04:29:54.368Z,27.75
2022-08-17T04:30:47.035Z,27.74
2022-08-17T04:31:47.034Z,27.78
2022-08-17T04:33:03.665Z,27.81
2022-08-17T04:33:47.038Z,27.74
2022-08-17T04:34:47.040Z,27.78
2022-08-17T04:35:47.038Z,27.67
2022-08-17T04:36:50.158Z,27.70
2022-08-17T04:37:47.041Z,27.78
2022-08-17T04:38:47.041Z,27.74
2022-08-17T04:39:47.079Z,27.75
2022-08-17T04:40:47.044Z,27.70
2022-08-17T04:41:47.047Z,27.78
2022-08-17T04:42:47.058Z,27.78
2022-08-17T04:43:47.044Z,27.74
2022-08-17T04:44:47.046Z,27.77
2022-08-17T04:45:55.422Z,27.78
2022-08-17T04:46:47.046Z,27.70
2022-08-17T04:47:47.047Z,27.77
2022-08-17T04:48:47.049Z,27.74
2022-08-17T04:49:47.048Z,27.78
2022-08-17T04:50:47.049Z,27.78
2022-08-17T04:51:56.825Z,27.72
2022-08-17T04:52:47.051Z,27.77
2022-08-17T04:53:49.032Z,27.79
2022-08-17T04:54:47.054Z,27.70
2022-08-17T04:55:47.053Z,27.75
2022-08-17T04:56:47.054Z,27.77
2022-08-17T04:57:47.053Z,27.72
2022-08-17T04:58:47.055Z,27.79
2022-08-17T04:59:47.055Z,27.70
2022-08-17T05:00:47.061Z,27.72
2022-08-17T05:01:47.081Z,27.77
2022-08-17T05:02:49.650Z,27.78
2022-08-17T05:03:47.057Z,27.81
2022-08-17T05:04:47.059Z,27.70
2022-08-17T05:05:47.059Z,27.78
2022-08-17T05:06:47.060Z,27.72
2022-08-17T05:07:47.059Z,27.67
2022-08-17T05:08:47.065Z,27.67
2022-08-17T05:09:47.060Z,27.70
2022-08-17T05:10:47.062Z,27.75
2022-08-17T05:11:47.061Z,27.70
2022-08-17T05:12:47.136Z,27.74
2022-08-17T05:13:47.065Z,27.70
2022-08-17T05:14:47.064Z,27.81
2022-08-17T05:15:47.926Z,27.69
2022-08-17T05:16:47.067Z,27.75
2022-08-17T05:17:47.067Z,27.70
2022-08-17T05:18:47.070Z,27.67
2022-08-17T05:19:51.740Z,27.67
2022-08-17T05:20:47.075Z,27.67
2022-08-17T05:21:47.068Z,27.69
2022-08-17T05:22:47.120Z,27.72
2022-08-17T05:23:47.741Z,27.63
2022-08-17T05:24:55.411Z,27.70
2022-08-17T05:25:47.737Z,27.63
2022-08-17T05:26:47.073Z,27.63
2022-08-17T05:27:47.073Z,27.66
2022-08-17T05:28:47.077Z,27.67
2022-08-17T05:29:47.075Z,27.69
2022-08-17T05:30:48.682Z,27.72
2022-08-17T05:31:47.075Z,27.74
2022-08-17T05:32:47.077Z,27.72
2022-08-17T05:33:47.080Z,27.65
2022-08-17T05:34:47.080Z,27.72
2022-08-17T05:35:47.085Z,27.62
2022-08-17T05:36:47.079Z,27.74
2022-08-17T05:37:47.080Z,27.66
2022-08-17T05:38:47.081Z,27.77
2022-08-17T05:39:47.133Z,27.65
2022-08-17T05:40:47.086Z,27.66
2022-08-17T05:41:47.087Z,27.65
2022-08-17T05:42:47.139Z,27.75
2022-08-17T05:43:47.083Z,27.67
2022-08-17T05:44:47.085Z,27.75
2022-08-17T05:45:55.809Z,27.67
2022-08-17T05:46:47.086Z,27.63
2022-08-17T05:47:47.086Z,27.63
2022-08-17T05:48:47.088Z,27.69
2022-08-17T05:49:49.196Z,27.69
2022-08-17T05:50:47.089Z,27.67
2022-08-17T05:51:47.089Z,27.75
2022-08-17T05:52:47.138Z,27.70
2022-08-17T05:53:47.091Z,27.67
2022-08-17T05:54:47.090Z,27.72
2022-08-17T05:55:47.091Z,27.62
2022-08-17T05:56:47.092Z,27.75
2022-08-17T05:57:53.048Z,27.69
2022-08-17T05:58:47.094Z,27.69
2022-08-17T05:59:47.095Z,27.67
2022-08-17T06:00:47.139Z,27.65
2022-08-17T06:01:47.097Z,27.67
2022-08-17T06:02:48.043Z,27.67
2022-08-17T06:03:47.099Z,27.70
2022-08-17T06:04:47.098Z,27.67
2022-08-17T06:05:47.099Z,27.75
2022-08-17T06:06:47.097Z,27.66
2022-08-17T06:07:47.100Z,27.77
2022-08-17T06:08:47.098Z,27.66
2022-08-17T06:09:47.101Z,27.63
2022-08-17T06:10:47.099Z,27.70
2022-08-17T06:11:47.104Z,27.69
2022-08-17T06:12:47.103Z,27.77
2022-08-17T06:13:47.109Z,27.66
2022-08-17T06:14:47.103Z,27.63
2022-08-17T06:15:47.105Z,27.70
2022-08-17T06:16:47.106Z,27.77
2022-08-17T06:17:47.107Z,27.66
2022-08-17T06:18:47.105Z,27.77
2022-08-17T06:19:47.107Z,27.77
2022-08-17T06:20:47.107Z,27.77
2022-08-17T06:21:47.109Z,27.67
2022-08-17T06:22:47.242Z,27.74
2022-08-17T06:23:47.112Z,27.66
2022-08-17T06:24:47.111Z,27.66
2022-08-17T06:25:47.113Z,27.70
2022-08-17T06:26:47.111Z,27.75
2022-08-17T06:27:47.113Z,27.75
2022-08-17T06:28:47.113Z,27.75
2022-08-17T06:29:47.114Z,27.72
2022-08-17T06:30:59.902Z,27.77
2022-08-17T06:31:47.121Z,27.77
2022-08-17T06:32:47.169Z,27.79
2022-08-17T06:33:47.117Z,27.79
2022-08-17T06:34:47.117Z,27.70
2022-08-17T06:35:47.118Z,27.77
2022-08-17T06:36:47.119Z,27.78
2022-08-17T06:37:47.120Z,27.79
2022-08-17T06:38:47.120Z,27.72
2022-08-17T06:39:47.172Z,27.87
2022-08-17T06:40:47.120Z,27.78
2022-08-17T06:41:47.123Z,27.75
2022-08-17T06:43:00.874Z,27.78
2022-08-17T06:43:48.140Z,27.74
2022-08-17T06:44:51.217Z,27.75
2022-08-17T06:45:47.124Z,27.81
2022-08-17T06:46:47.124Z,27.77
2022-08-17T06:47:47.126Z,27.81
2022-08-17T06:48:47.125Z,27.85
2022-08-17T06:49:50.539Z,27.77
2022-08-17T06:50:47.126Z,27.72
2022-08-17T06:51:47.128Z,27.82
2022-08-17T06:52:47.586Z,27.90
2022-08-17T06:53:47.130Z,27.74
2022-08-17T06:54:47.129Z,27.81
2022-08-17T06:55:47.131Z,27.77
2022-08-17T06:56:53.295Z,27.84
2022-08-17T06:57:47.133Z,27.81
2022-08-17T06:58:47.132Z,27.90
2022-08-17T06:59:56.430Z,27.82
2022-08-17T07:00:47.435Z,27.85
2022-08-17T07:01:47.136Z,27.81
2022-08-17T07:02:51.474Z,27.79
2022-08-17T07:03:47.135Z,27.84
2022-08-17T07:04:47.137Z,27.88
2022-08-17T07:05:47.139Z,27.92
2022-08-17T07:06:47.138Z,27.87
2022-08-17T07:07:47.139Z,27.82
2022-08-17T07:08:47.139Z,27.87
2022-08-17T07:09:47.141Z,27.88
2022-08-17T07:10:47.141Z,27.82
2022-08-17T07:11:47.141Z,27.87
2022-08-17T07:12:47.143Z,27.87
2022-08-17T07:13:51.452Z,27.96
2022-08-17T07:14:47.144Z,27.88
2022-08-17T07:15:47.145Z,27.88
2022-08-17T07:16:47.147Z,27.88
2022-08-17T07:17:48.256Z,27.92
2022-08-17T07:18:47.145Z,27.92
2022-08-17T07:19:47.147Z,27.84
2022-08-17T07:20:47.149Z,27.94
2022-08-17T07:21:47.149Z,27.84
2022-08-17T07:22:57.356Z,27.82
2022-08-17T07:23:47.151Z,27.94
2022-08-17T07:24:47.158Z,27.93
2022-08-17T07:25:47.152Z,27.87
2022-08-17T07:26:47.152Z,27.90
2022-08-17T07:27:47.209Z,27.92
2022-08-17T07:28:47.154Z,27.93
2022-08-17T07:29:47.154Z,27.88
2022-08-17T07:30:47.755Z,27.92
2022-08-17T07:31:47.160Z,27.92
2022-08-17T07:32:47.162Z,27.92
2022-08-17T07:33:47.159Z,27.88
2022-08-17T07:34:47.158Z,27.93
2022-08-17T07:35:47.160Z,27.92
2022-08-17T07:36:47.161Z,27.90
2022-08-17T07:37:47.162Z,27.85
2022-08-17T07:38:47.162Z,27.88
2022-08-17T07:40:04.470Z,27.88
2022-08-17T07:40:47.227Z,27.92
2022-08-17T07:41:53.186Z,27.93
2022-08-17T07:42:47.164Z,27.93
2022-08-17T07:43:47.166Z,27.87
2022-08-17T07:44:47.364Z,27.92
2022-08-17T07:45:47.169Z,27.94
2022-08-17T07:46:47.192Z,27.90
2022-08-17T07:47:47.171Z,27.85
2022-08-17T07:48:47.170Z,27.87
2022-08-17T07:49:47.171Z,27.92
2022-08-17T07:50:49.605Z,27.90
2022-08-17T07:51:47.172Z,27.99
2022-08-17T07:52:50.631Z,27.99
2022-08-17T07:53:47.174Z,27.92
2022-08-17T07:54:47.173Z,27.96
2022-08-17T07:55:47.176Z,27.99
2022-08-17T07:56:47.175Z,27.94
2022-08-17T07:57:47.222Z,27.96
2022-08-17T07:58:47.177Z,27.97
2022-08-17T07:59:47.179Z,27.88
2022-08-17T08:00:47.178Z,28.02
2022-08-17T08:01:47.229Z,27.90
2022-08-17T08:02:47.179Z,27.96
2022-08-17T08:03:49.904Z,28.02
2022-08-17T08:05:00.661Z,27.97
2022-08-17T08:05:50.635Z,28.04
2022-08-17T08:06:47.183Z,28.02
2022-08-17T08:07:47.186Z,27.99
2022-08-17T08:08:47.186Z,28.00
2022-08-17T08:09:47.188Z,28.07
2022-08-17T08:10:47.187Z,28.06
2022-08-17T08:11:47.189Z,27.96
2022-08-17T08:12:47.189Z,28.11
2022-08-17T08:13:47.190Z,28.07
2022-08-17T08:14:47.190Z,28.11
2022-08-17T08:15:53.833Z,28.02
2022-08-17T08:16:47.191Z,28.04
2022-08-17T08:17:47.254Z,28.04
2022-08-17T08:18:55.015Z,28.02
2022-08-17T08:19:47.194Z,28.02
2022-08-17T08:20:53.398Z,28.00
2022-08-17T08:21:47.212Z,28.07
2022-08-17T08:22:47.198Z,28.07
2022-08-17T08:23:47.199Z,28.07
2022-08-17T08:24:47.198Z,28.04
2022-08-17T08:25:50.834Z,28.07
2022-08-17T08:26:47.201Z,27.94
2022-08-17T08:27:47.244Z,28.07
2022-08-17T08:28:47.203Z,28.11
2022-08-17T08:29:47.205Z,28.07
2022-08-17T08:30:47.202Z,28.04
2022-08-17T08:31:47.205Z,28.07
2022-08-17T08:32:47.206Z,28.12
2022-08-17T08:33:47.208Z,28.02
2022-08-17T08:35:01.028Z,28.06
2022-08-17T08:35:47.208Z,28.00
2022-08-17T08:37:02.171Z,28.09
2022-08-17T08:37:47.213Z,28.07
2022-08-17T08:38:47.210Z,27.96
2022-08-17T08:39:47.292Z,27.97
2022-08-17T08:40:47.216Z,27.99
2022-08-17T08:41:47.215Z,28.09
2022-08-17T08:42:47.217Z,27.92
2022-08-17T08:43:52.239Z,27.99
2022-08-17T08:44:59.822Z,27.99
2022-08-17T08:45:47.220Z,27.96
2022-08-17T08:46:47.335Z,28.02
2022-08-17T08:47:47.375Z,28.00
2022-08-17T08:48:56.983Z,27.97
2022-08-17T08:50:03.398Z,28.02
2022-08-17T08:50:47.220Z,28.00
2022-08-17T08:51:47.231Z,27.94
2022-08-17T08:52:47.224Z,27.96
2022-08-17T08:53:47.224Z,28.02
2022-08-17T08:54:47.224Z,27.94
2022-08-17T08:55:47.226Z,27.96
2022-08-17T08:57:11.955Z,28.02
2022-08-17T08:57:47.325Z,27.97
2022-08-17T08:58:47.227Z,28.00
2022-08-17T08:59:51.125Z,27.99
2022-08-17T09:00:47.229Z,28.00
2022-08-17T09:01:47.394Z,27.96
2022-08-17T09:02:47.231Z,28.00
2022-08-17T09:03:52.701Z,28.03
2022-08-17T09:05:13.023Z,27.92
2022-08-17T09:05:47.235Z,28.00
2022-08-17T09:06:47.233Z,28.09
2022-08-17T09:07:47.262Z,27.94
2022-08-17T09:08:47.236Z,28.04
2022-08-17T09:09:47.238Z,28.09
2022-08-17T09:10:47.239Z,28.03
2022-08-17T09:12:02.498Z,28.12
2022-08-17T09:12:47.239Z,28.12
2022-08-17T09:13:54.341Z,28.07
2022-08-17T09:14:47.479Z,28.14
2022-08-17T09:15:47.248Z,28.18
2022-08-17T09:16:47.244Z,28.14
2022-08-17T09:17:47.368Z,28.19
2022-08-17T09:19:00.743Z,28.14
2022-08-17T09:19:47.246Z,28.14
2022-08-17T09:20:50.176Z,28.18
2022-08-17T09:21:48.765Z,28.22
2022-08-17T09:22:47.248Z,28.29
2022-08-17T09:23:47.251Z,28.19
2022-08-17T09:24:47.249Z,28.22
2022-08-17T09:25:47.252Z,28.17
2022-08-17T09:26:47.261Z,28.22
2022-08-17T09:27:47.317Z,28.25
2022-08-17T09:28:47.254Z,28.22
2022-08-17T09:29:47.255Z,28.24
2022-08-17T09:30:47.256Z,28.33
2022-08-17T09:31:49.458Z,28.33
2022-08-17T09:32:47.258Z,28.29
2022-08-17T09:33:47.259Z,28.25
2022-08-17T09:34:48.527Z,28.30
2022-08-17T09:35:47.262Z,28.31
2022-08-17T09:36:47.263Z,28.25
2022-08-17T09:37:47.264Z,28.25
2022-08-17T09:38:47.263Z,28.30
2022-08-17T09:39:47.337Z,28.31
2022-08-17T09:40:47.265Z,28.31
2022-08-17T09:41:49.321Z,28.31
2022-08-17T09:42:47.267Z,28.30
2022-08-17T09:43:47.268Z,28.29
2022-08-17T09:44:47.268Z,28.30
2022-08-17T09:45:47.271Z,28.33
2022-08-17T09:46:47.270Z,28.22
2022-08-17T09:47:47.331Z,28.29
2022-08-17T09:48:47.273Z,28.33
2022-08-17T09:49:47.277Z,28.36
2022-08-17T09:51:05.224Z,28.27
2022-08-17T09:51:47.276Z,28.27
2022-08-17T09:52:47.277Z,28.29
2022-08-17T09:53:47.279Z,28.30
2022-08-17T09:54:47.280Z,28.33
2022-08-17T09:55:47.281Z,28.41
2022-08-17T09:57:00.701Z,28.41
2022-08-17T09:57:47.354Z,28.48
2022-08-17T09:58:47.284Z,28.39
2022-08-17T09:59:47.286Z,28.40
2022-08-17T10:00:47.332Z,28.48
2022-08-17T10:01:47.287Z,28.48
2022-08-17T10:02:47.286Z,28.43
2022-08-17T10:03:47.292Z,28.49
2022-08-17T10:04:47.292Z,28.49
2022-08-17T10:05:47.296Z,28.49
2022-08-17T10:06:47.292Z,28.43
2022-08-17T10:07:47.372Z,28.44
2022-08-17T10:08:47.295Z,28.51
2022-08-17T10:09:47.296Z,28.48
2022-08-17T10:10:52.356Z,28.48
2022-08-17T10:11:48.311Z,28.46
2022-08-17T10:12:47.325Z,28.46
2022-08-17T10:13:52.935Z,28.46
2022-08-17T10:14:53.267Z,28.46
2022-08-17T10:15:47.302Z,28.43
2022-08-17T10:16:47.303Z,28.52
2022-08-17T10:17:47.389Z,28.40
2022-08-17T10:18:47.303Z,28.48
2022-08-17T10:19:47.307Z,28.49
2022-08-17T10:20:47.307Z,28.41
2022-08-17T10:21:47.307Z,28.43
2022-08-17T10:22:52.649Z,28.46
2022-08-17T10:23:47.308Z,28.54
2022-08-17T10:25:02.101Z,28.43
2022-08-17T10:25:54.967Z,28.49
2022-08-17T10:26:56.772Z,28.51
2022-08-17T10:27:47.312Z,28.44
2022-08-17T10:28:47.316Z,28.41
2022-08-17T10:29:49.564Z,28.48
2022-08-17T10:30:47.331Z,28.49
2022-08-17T10:31:47.318Z,28.44
2022-08-17T10:32:47.321Z,28.52
2022-08-17T10:33:47.320Z,28.40
2022-08-17T10:34:47.322Z,28.44
2022-08-17T10:35:47.322Z,28.43
2022-08-17T10:36:47.329Z,28.48
2022-08-17T10:37:47.378Z,28.61
2022-08-17T10:38:47.324Z,28.54
2022-08-17T10:39:52.113Z,28.56
2022-08-17T10:40:47.328Z,28.55
2022-08-17T10:41:47.328Z,28.58
2022-08-17T10:42:47.330Z,28.59
2022-08-17T10:44:28.561Z,28.59
2022-08-17T10:44:47.331Z,28.54
2022-08-17T10:45:47.333Z,28.58
2022-08-17T10:46:47.335Z,28.58
2022-08-17T10:47:55.352Z,28.61
2022-08-17T10:48:47.336Z,28.55
2022-08-17T10:49:47.336Z,28.64
2022-08-17T10:50:47.339Z,28.58
2022-08-17T10:51:47.339Z,28.62
2022-08-17T10:52:47.341Z,28.55
2022-08-17T10:53:47.341Z,28.61
2022-08-17T10:54:47.349Z,28.58
2022-08-17T10:55:47.343Z,28.56
2022-08-17T10:56:47.348Z,28.55
2022-08-17T10:57:47.525Z,28.56
2022-08-17T10:58:47.348Z,28.61
2022-08-17T10:59:47.348Z,28.64
2022-08-17T11:00:47.370Z,28.61
2022-08-17T11:01:47.352Z,28.66
2022-08-17T11:02:47.422Z,28.67
2022-08-17T11:03:47.353Z,28.61
2022-08-17T11:04:47.354Z,28.58
2022-08-17T11:05:47.355Z,28.62
2022-08-17T11:06:47.358Z,28.62
2022-08-17T11:07:47.357Z,28.59
2022-08-17T11:08:47.362Z,28.67
2022-08-17T11:09:47.359Z,28.67
2022-08-17T11:10:51.798Z,28.70
2022-08-17T11:11:47.364Z,28.67
2022-08-17T11:12:47.410Z,28.66
2022-08-17T11:13:47.365Z,28.62
2022-08-17T11:14:47.365Z,28.56
2022-08-17T11:15:47.375Z,28.56
2022-08-17T11:16:47.370Z,28.61
2022-08-17T11:17:47.368Z,28.61
2022-08-17T11:18:47.371Z,28.55
2022-08-17T11:19:47.372Z,28.54
2022-08-17T11:20:47.372Z,28.61
2022-08-17T11:21:47.375Z,28.51
2022-08-17T11:22:47.434Z,28.55
2022-08-17T11:23:47.375Z,28.54
2022-08-17T11:24:47.379Z,28.62
2022-08-17T11:25:47.379Z,28.56
2022-08-17T11:26:47.379Z,28.61
2022-08-17T11:27:47.380Z,28.55
2022-08-17T11:28:47.382Z,28.59
2022-08-17T11:29:51.955Z,28.56
2022-08-17T11:30:48.612Z,28.55
2022-08-17T11:31:47.384Z,28.61
2022-08-17T11:32:48.761Z,28.55
2022-08-17T11:33:47.388Z,28.52
2022-08-17T11:34:47.390Z,28.52
2022-08-17T11:35:47.388Z,28.41
2022-08-17T11:36:47.392Z,28.51
2022-08-17T11:37:47.396Z,28.40
2022-08-17T11:38:47.393Z,28.46
2022-08-17T11:39:47.475Z,28.43
2022-08-17T11:40:47.395Z,28.41
2022-08-17T11:41:47.397Z,28.49
2022-08-17T11:42:47.449Z,28.48
2022-08-17T11:43:47.397Z,28.46
2022-08-17T11:44:47.399Z,28.48
2022-08-17T11:45:47.400Z,28.37
2022-08-17T11:46:51.669Z,28.40
2022-08-17T11:48:09.065Z,28.39
2022-08-17T11:48:47.403Z,28.39
2022-08-17T11:49:47.406Z,28.36
2022-08-17T11:50:47.406Z,28.41
2022-08-17T11:51:47.406Z,28.40
2022-08-17T11:52:47.410Z,28.44
2022-08-17T11:53:47.409Z,28.34
2022-08-17T11:54:47.413Z,28.34
2022-08-17T11:55:47.411Z,28.41
2022-08-17T11:56:47.413Z,28.41
2022-08-17T11:57:47.538Z,28.30
2022-08-17T11:58:47.415Z,28.33
2022-08-17T11:59:47.415Z,28.29
2022-08-17T12:00:47.419Z,28.29
2022-08-17T12:01:47.417Z,28.29
2022-08-17T12:02:48.639Z,28.31
2022-08-17T12:03:55.433Z,28.34
2022-08-17T12:04:47.489Z,28.30
2022-08-17T12:05:47.423Z,28.39
2022-08-17T12:06:47.423Z,28.36
2022-08-17T12:07:47.422Z,28.34
2022-08-17T12:08:47.427Z,28.34
2022-08-17T12:09:47.427Z,28.25
2022-08-17T12:10:47.426Z,28.33
2022-08-17T12:11:55.508Z,28.34
2022-08-17T12:12:47.428Z,28.33
2022-08-17T12:13:47.429Z,28.30
2022-08-17T12:15:12.206Z,28.30
2022-08-17T12:15:47.432Z,28.34
2022-08-17T12:16:47.434Z,28.29
2022-08-17T12:17:47.437Z,28.25
2022-08-17T12:18:47.434Z,28.29
2022-08-17T12:19:47.436Z,28.29
2022-08-17T12:20:47.438Z,28.29
2022-08-17T12:21:47.437Z,28.27
2022-08-17T12:22:47.438Z,28.29
2022-08-17T12:23:47.438Z,28.31
2022-08-17T12:24:47.443Z,28.29
2022-08-17T12:25:47.444Z,28.24
2022-08-17T12:26:47.443Z,28.24
2022-08-17T12:28:05.334Z,28.25
2022-08-17T12:28:47.446Z,28.24
2022-08-17T12:29:47.445Z,28.22
2022-08-17T12:30:47.447Z,28.29
2022-08-17T12:31:47.447Z,28.30
2022-08-17T12:32:47.450Z,28.24
2022-08-17T12:33:47.449Z,28.25
2022-08-17T12:34:47.450Z,28.31
2022-08-17T12:35:47.452Z,28.29
2022-08-17T12:36:47.453Z,28.33
2022-08-17T12:37:47.454Z,28.33
2022-08-17T12:38:47.454Z,28.31
2022-08-17T12:39:47.475Z,28.25
2022-08-17T12:40:47.458Z,28.30
2022-08-17T12:41:47.459Z,28.29
2022-08-17T12:42:47.458Z,28.27
2022-08-17T12:43:47.485Z,28.27
2022-08-17T12:44:50.428Z,28.30
2022-08-17T12:45:47.464Z,28.27
2022-08-17T12:46:47.463Z,28.31
2022-08-17T12:47:47.463Z,28.27
2022-08-17T12:48:59.389Z,28.33
2022-08-17T12:49:47.465Z,28.24
2022-08-17T12:50:47.467Z,28.24
2022-08-17T12:51:47.468Z,28.22
2022-08-17T12:52:47.471Z,28.29